Wood, South Dakota
Current Conditions -  °F | °C
As of 2:53 AM on Monday 26 Jan 2015 (Local Time) from KICR Reporting Station
Clear Clear  
Wind Chill: 38°   Ceiling: Unl
Heat Index: 44°   Visibility: 10mi
Dew Point: 33°   Wind: 13mph
Humidity: 65%   Direction: 280°W
Pressure: 29.89"   Gusts: NA
Location:  43.5°N, 100.48°W
Report Text: KICR 260953Z AUTO 28011KT 10SM CLR 07/01 A2989 RMK AO2 SLP130 T00670006
Loading
Personal Weather Stations






























Interactive Weather Map New forecast layout! Learn more

10-Day Weather Forecast

Advertisements
Track Severe Weather on mobile